sensor_id;sensor_type;location;lat;lon;timestamp;pressure;altitude;pressure_sealevel;temperature;humidity
71057;BME280;58380;48.312;9.246;2023-02-17T07:10:46;94380.97;;;5.70;81.11
71057;BME280;58380;48.312;9.246;2023-02-17T07:13:12;94349.81;;;5.55;80.90
71057;BME280;58380;48.312;9.246;2023-02-17T07:15:37;94307.41;;;5.33;81.21
71057;BME280;58380;48.312;9.246;2023-02-17T07:18:03;94400.06;;;5.83;81.37
71057;BME280;58380;48.312;9.246;2023-02-17T07:20:29;94380.31;;;5.81;81.35
71057;BME280;58380;48.312;9.246;2023-02-17T07:22:56;94370.09;;;5.73;81.40
71057;BME280;58380;48.312;9.246;2023-02-17T07:25:23;94367.22;;;5.81;81.63
71057;BME280;58380;48.312;9.246;2023-02-17T07:27:48;94350.94;;;5.72;81.90
71057;BME280;58380;48.312;9.246;2023-02-17T07:30:14;94377.84;;;5.93;82.07
71057;BME280;58380;48.312;9.246;2023-02-17T07:32:39;94370.59;;;5.95;81.26
71057;BME280;58380;48.312;9.246;2023-02-17T07:35:05;94398.28;;;6.16;81.30
71057;BME280;58380;48.312;9.246;2023-02-17T07:37:30;94401.09;;;6.21;81.65
71057;BME280;58380;48.312;9.246;2023-02-17T07:39:56;94398.09;;;6.17;81.86
71057;BME280;58380;48.312;9.246;2023-02-17T07:42:21;94364.34;;;5.96;81.62
71057;BME280;58380;48.312;9.246;2023-02-17T07:44:47;94404.69;;;6.26;81.75
71057;BME280;58380;48.312;9.246;2023-02-17T07:47:13;94413.91;;;6.36;81.61
71057;BME280;58380;48.312;9.246;2023-02-17T07:49:38;94389.81;;;6.20;81.52
71057;BME280;58380;48.312;9.246;2023-02-17T07:52:04;94399.19;;;6.35;81.83
71057;BME280;58380;48.312;9.246;2023-02-17T07:54:29;94427.31;;;6.53;81.32
71057;BME280;58380;48.312;9.246;2023-02-17T07:56:55;94409.59;;;6.48;81.38
71057;BME280;58380;48.312;9.246;2023-02-17T07:59:20;94415.94;;;6.59;81.61
71057;BME280;58380;48.312;9.246;2023-02-17T08:01:45;94425.06;;;6.81;82.68
71057;BME280;58380;48.312;9.246;2023-02-17T08:04:11;94430.09;;;7.08;82.63
71057;BME280;58380;48.312;9.246;2023-02-17T08:06:39;94422.81;;;7.10;82.75
71057;BME280;58380;48.312;9.246;2023-02-17T08:09:05;94402.41;;;7.30;83.69
71057;BME280;58380;48.312;9.246;2023-02-17T08:11:49;94397.19;;;7.49;82.87
71057;BME280;58380;48.312;9.246;2023-02-17T08:14:33;94410.00;;;7.75;82.88
71057;BME280;58380;48.312;9.246;2023-02-17T08:16:59;94379.41;;;7.63;82.73
71057;BME280;58380;48.312;9.246;2023-02-17T08:19:25;94391.28;;;7.84;82.52
71057;BME280;58380;48.312;9.246;2023-02-17T08:21:51;94406.31;;;7.95;83.25
71057;BME280;58380;48.312;9.246;2023-02-17T08:24:17;94418.41;;;8.14;82.82
71057;BME280;58380;48.312;9.246;2023-02-17T08:26:46;94423.56;;;8.21;82.92
71057;BME280;58380;48.312;9.246;2023-02-17T08:29:12;94397.66;;;8.06;82.80
71057;BME280;58380;48.312;9.246;2023-02-17T08:31:38;94420.50;;;8.24;82.89
71057;BME280;58380;48.312;9.246;2023-02-17T08:34:07;94417.22;;;8.29;82.76
71057;BME280;58380;48.312;9.246;2023-02-17T08:36:34;94416.19;;;8.30;82.94
71057;BME280;58380;48.312;9.246;2023-02-17T08:39:03;94425.38;;;8.39;82.97
71057;BME280;58380;48.312;9.246;2023-02-17T08:41:39;94420.47;;;8.42;82.97
71057;BME280;58380;48.312;9.246;2023-02-17T08:44:11;94428.88;;;8.51;82.54
71057;BME280;58380;48.312;9.246;2023-02-17T08:46:38;94427.63;;;8.54;82.65
71057;BME280;58380;48.312;9.246;2023-02-17T08:49:05;94422.47;;;8.59;82.63
71057;BME280;58380;48.312;9.246;2023-02-17T08:51:31;94438.75;;;8.79;82.13
71057;BME280;58380;48.312;9.246;2023-02-17T08:53:58;94438.63;;;8.86;82.30
71057;BME280;58380;48.312;9.246;2023-02-17T08:56:28;94434.53;;;8.90;82.29
71057;BME280;58380;48.312;9.246;2023-02-17T08:58:54;94407.88;;;8.87;82.45
71057;BME280;58380;48.312;9.246;2023-02-17T09:01:20;94427.34;;;8.97;82.26
71057;BME280;58380;48.312;9.246;2023-02-17T09:03:48;94418.06;;;8.95;81.96
71057;BME280;58380;48.312;9.246;2023-02-17T09:06:15;94366.97;;;8.60;81.85
71057;BME280;58380;48.312;9.246;2023-02-17T09:08:41;94436.94;;;9.03;82.30
71057;BME280;58380;48.312;9.246;2023-02-17T09:11:08;94446.09;;;9.01;82.25
71057;BME280;58380;48.312;9.246;2023-02-17T09:13:34;94446.94;;;9.01;82.41
71057;BME280;58380;48.312;9.246;2023-02-17T09:16:00;94443.47;;;9.01;82.48
71057;BME280;58380;48.312;9.246;2023-02-17T09:18:26;94426.06;;;9.00;82.59
71057;BME280;58380;48.312;9.246;2023-02-17T09:20:52;94433.50;;;9.03;82.45
71057;BME280;58380;48.312;9.246;2023-02-17T09:23:18;94451.38;;;9.01;82.40
71057;BME280;58380;48.312;9.246;2023-02-17T09:25:44;94451.72;;;9.04;83.04
71057;BME280;58380;48.312;9.246;2023-02-17T09:28:10;94449.19;;;8.98;82.85
71057;BME280;58380;48.312;9.246;2023-02-17T09:30:38;94442.88;;;8.87;83.14
71057;BME280;58380;48.312;9.246;2023-02-17T09:33:04;94417.44;;;8.81;83.06
71057;BME280;58380;48.312;9.246;2023-02-17T09:35:30;94440.84;;;9.01;83.00
71057;BME280;58380;48.312;9.246;2023-02-17T09:37:56;94415.78;;;8.87;82.79
71057;BME280;58380;48.312;9.246;2023-02-17T09:40:35;94439.34;;;9.05;82.46
71057;BME280;58380;48.312;9.246;2023-02-17T09:43:11;94446.03;;;9.19;82.12
71057;BME280;58380;48.312;9.246;2023-02-17T09:45:41;94413.16;;;9.22;81.23
71057;BME280;58380;48.312;9.246;2023-02-17T09:48:14;94422.53;;;9.41;81.54
71057;BME280;58380;48.312;9.246;2023-02-17T09:50:49;94443.00;;;9.75;80.48
71057;BME280;58380;48.312;9.246;2023-02-17T09:53:34;94437.59;;;9.81;79.91
71057;BME280;58380;48.312;9.246;2023-02-17T09:56:09;94443.50;;;10.00;79.12
71057;BME280;58380;48.312;9.246;2023-02-17T09:58:50;94427.19;;;10.15;78.97
71057;BME280;58380;48.312;9.246;2023-02-17T10:01:24;94380.50;;;9.87;78.37
71057;BME280;58380;48.312;9.246;2023-02-17T10:06:39;94437.88;;;10.08;78.90
71057;BME280;58380;48.312;9.246;2023-02-17T10:09:23;94423.06;;;10.07;78.66
71057;BME280;58380;48.312;9.246;2023-02-17T10:12:13;94426.84;;;10.11;78.94
71057;BME280;58380;48.312;9.246;2023-02-17T10:14:58;94435.56;;;10.12;78.25
71057;BME280;58380;48.312;9.246;2023-02-17T10:23:14;94415.59;;;9.76;80.15
71057;BME280;58380;48.312;9.246;2023-02-17T10:34:36;94446.63;;;9.97;80.31
71057;BME280;58380;48.312;9.246;2023-02-17T10:40:19;94437.34;;;9.83;80.98
71057;BME280;58380;48.312;9.246;2023-02-17T10:42:49;94371.63;;;9.53;80.58
71057;BME280;58380;48.312;9.246;2023-02-17T10:45:25;94425.88;;;9.89;80.26
71057;BME280;58380;48.312;9.246;2023-02-17T10:48:05;94445.56;;;9.98;80.06
71057;BME280;58380;48.312;9.246;2023-02-17T10:50:35;94420.94;;;9.92;80.35
71057;BME280;58380;48.312;9.246;2023-02-17T10:53:24;94418.19;;;9.99;79.73
71057;BME280;58380;48.312;9.246;2023-02-17T10:58:42;94428.94;;;9.98;80.44
71057;BME280;58380;48.312;9.246;2023-02-17T11:01:10;94418.41;;;9.98;80.38
71057;BME280;58380;48.312;9.246;2023-02-17T11:03:37;94427.00;;;9.93;80.98
71057;BME280;58380;48.312;9.246;2023-02-17T11:06:17;94404.34;;;9.80;81.11
71057;BME280;58380;48.312;9.246;2023-02-17T11:08:59;94421.94;;;10.03;80.98
71057;BME280;58380;48.312;9.246;2023-02-17T11:11:28;94409.59;;;9.92;81.30
71057;BME280;58380;48.312;9.246;2023-02-17T11:16:36;94419.75;;;10.00;81.36
71057;BME280;58380;48.312;9.246;2023-02-17T11:19:05;94413.47;;;10.01;81.01
71057;BME280;58380;48.312;9.246;2023-02-17T11:21:45;94438.31;;;10.17;80.74
71057;BME280;58380;48.312;9.246;2023-02-17T11:24:10;94441.59;;;10.24;80.98
71057;BME280;58380;48.312;9.246;2023-02-17T11:26:36;94431.75;;;10.20;80.75
71057;BME280;58380;48.312;9.246;2023-02-17T11:31:55;94419.75;;;10.41;80.54
71057;BME280;58380;48.312;9.246;2023-02-17T11:34:28;94396.38;;;10.32;79.94
71057;BME280;58380;48.312;9.246;2023-02-17T11:42:30;94431.44;;;10.45;80.49
71057;BME280;58380;48.312;9.246;2023-02-17T11:44:59;94404.41;;;10.38;80.26
71057;BME280;58380;48.312;9.246;2023-02-17T11:51:02;94427.31;;;10.49;79.47
71057;BME280;58380;48.312;9.246;2023-02-17T11:53:56;94430.75;;;10.49;80.22
71057;BME280;58380;48.312;9.246;2023-02-17T11:56:34;94423.13;;;10.36;80.19
71057;BME280;58380;48.312;9.246;2023-02-17T12:07:45;94426.25;;;10.50;80.55
71057;BME280;58380;48.312;9.246;2023-02-17T12:10:36;94426.59;;;10.53;80.71
71057;BME280;58380;48.312;9.246;2023-02-17T12:13:25;94431.22;;;10.63;80.36
71057;BME280;58380;48.312;9.246;2023-02-17T12:16:04;94428.13;;;10.66;80.19
71057;BME280;58380;48.312;9.246;2023-02-17T12:19:10;94442.28;;;10.60;80.44
71057;BME280;58380;48.312;9.246;2023-02-17T12:22:15;94440.44;;;10.61;80.21
71057;BME280;58380;48.312;9.246;2023-02-17T12:27:39;94422.16;;;10.42;80.65
71057;BME280;58380;48.312;9.246;2023-02-17T12:36:15;94427.47;;;10.59;80.26
71057;BME280;58380;48.312;9.246;2023-02-17T12:38:49;94440.50;;;10.49;80.76
71057;BME280;58380;48.312;9.246;2023-02-17T12:41:30;94409.06;;;10.19;81.40
71057;BME280;58380;48.312;9.246;2023-02-17T12:44:13;94440.81;;;10.24;81.99
71057;BME280;58380;48.312;9.246;2023-02-17T12:47:00;94428.69;;;10.11;82.48
71057;BME280;58380;48.312;9.246;2023-02-17T12:49:38;94431.56;;;10.09;82.34
71057;BME280;58380;48.312;9.246;2023-02-17T12:52:25;94444.94;;;10.20;82.39
71057;BME280;58380;48.312;9.246;2023-02-17T12:55:24;94440.13;;;10.28;82.15
71057;BME280;58380;48.312;9.246;2023-02-17T12:58:11;94446.53;;;10.21;82.07
71057;BME280;58380;48.312;9.246;2023-02-17T13:00:44;94439.34;;;10.16;82.19
71057;BME280;58380;48.312;9.246;2023-02-17T13:03:38;94443.34;;;10.19;82.31
71057;BME280;58380;48.312;9.246;2023-02-17T13:06:27;94452.63;;;10.21;82.58
71057;BME280;58380;48.312;9.246;2023-02-17T13:12:54;94443.00;;;10.15;82.79
71057;BME280;58380;48.312;9.246;2023-02-17T13:15:24;94429.97;;;10.08;82.68
71057;BME280;58380;48.312;9.246;2023-02-17T13:17:58;94420.66;;;10.06;82.45
71057;BME280;58380;48.312;9.246;2023-02-17T13:20:40;94398.47;;;9.90;82.92
71057;BME280;58380;48.312;9.246;2023-02-17T13:23:30;94414.84;;;10.04;82.71
71057;BME280;58380;48.312;9.246;2023-02-17T13:28:49;94420.34;;;10.02;83.25
71057;BME280;58380;48.312;9.246;2023-02-17T13:31:22;94427.66;;;10.12;83.30
71057;BME280;58380;48.312;9.246;2023-02-17T13:33:52;94429.91;;;10.20;82.93
71057;BME280;58380;48.312;9.246;2023-02-17T13:39:04;94399.13;;;10.09;82.66
71057;BME280;58380;48.312;9.246;2023-02-17T13:41:49;94431.28;;;10.23;82.76
71057;BME280;58380;48.312;9.246;2023-02-17T13:44:25;94410.56;;;10.14;83.18
71057;BME280;58380;48.312;9.246;2023-02-17T13:46:58;94394.72;;;10.14;82.71
71057;BME280;58380;48.312;9.246;2023-02-17T13:49:32;94424.50;;;10.39;82.42
71057;BME280;58380;48.312;9.246;2023-02-17T13:52:20;94414.06;;;10.32;82.52
71057;BME280;58380;48.312;9.246;2023-02-17T13:55:04;94425.28;;;10.39;82.92
71057;BME280;58380;48.312;9.246;2023-02-17T13:57:32;94407.69;;;10.45;82.46
71057;BME280;58380;48.312;9.246;2023-02-17T14:02:50;94411.38;;;10.44;82.07
71057;BME280;58380;48.312;9.246;2023-02-17T14:05:27;94407.59;;;10.40;82.15
71057;BME280;58380;48.312;9.246;2023-02-17T14:08:11;94434.31;;;10.43;82.32
71057;BME280;58380;48.312;9.246;2023-02-17T14:10:41;94416.00;;;10.36;82.48
71057;BME280;58380;48.312;9.246;2023-02-17T14:13:11;94421.50;;;10.35;82.71
71057;BME280;58380;48.312;9.246;2023-02-17T14:15:37;94416.88;;;10.42;82.64
71057;BME280;58380;48.312;9.246;2023-02-17T14:18:15;94409.06;;;10.47;82.04
71057;BME280;58380;48.312;9.246;2023-02-17T14:21:03;94421.63;;;10.57;81.94
71057;BME280;58380;48.312;9.246;2023-02-17T14:23:47;94395.78;;;10.42;81.97
71057;BME280;58380;48.312;9.246;2023-02-17T14:26:38;94432.13;;;10.69;81.63
71057;BME280;58380;48.312;9.246;2023-02-17T14:29:09;94434.28;;;10.72;81.20
71057;BME280;58380;48.312;9.246;2023-02-17T14:31:41;94421.41;;;10.58;81.76
71057;BME280;58380;48.312;9.246;2023-02-17T14:34:24;94419.66;;;10.64;81.36
71057;BME280;58380;48.312;9.246;2023-02-17T14:36:52;94413.84;;;10.50;81.51
71057;BME280;58380;48.312;9.246;2023-02-17T14:39:17;94390.53;;;10.30;81.62
71057;BME280;58380;48.312;9.246;2023-02-17T14:41:43;94411.19;;;10.33;82.18
71057;BME280;58380;48.312;9.246;2023-02-17T14:44:09;94434.69;;;10.35;82.45
71057;BME280;58380;48.312;9.246;2023-02-17T14:46:35;94432.81;;;10.47;82.34
71057;BME280;58380;48.312;9.246;2023-02-17T14:49:00;94439.31;;;10.56;82.51
71057;BME280;58380;48.312;9.246;2023-02-17T14:51:32;94426.75;;;10.47;82.47
71057;BME280;58380;48.312;9.246;2023-02-17T14:54:11;94400.41;;;10.35;82.47
71057;BME280;58380;48.312;9.246;2023-02-17T14:56:47;94423.88;;;10.48;82.80
71057;BME280;58380;48.312;9.246;2023-02-17T14:59:23;94411.75;;;10.35;83.09
71057;BME280;58380;48.312;9.246;2023-02-17T15:01:49;94405.25;;;10.26;83.26
71057;BME280;58380;48.312;9.246;2023-02-17T15:04:14;94401.47;;;10.22;83.49
71057;BME280;58380;48.312;9.246;2023-02-17T15:06:42;94390.69;;;10.24;83.44
71057;BME280;58380;48.312;9.246;2023-02-17T15:09:12;94428.91;;;10.50;83.26
71057;BME280;58380;48.312;9.246;2023-02-17T15:11:41;94424.97;;;10.52;83.19
71057;BME280;58380;48.312;9.246;2023-02-17T15:14:16;94423.72;;;10.55;83.06
71057;BME280;58380;48.312;9.246;2023-02-17T15:16:44;94414.91;;;10.49;83.40
71057;BME280;58380;48.312;9.246;2023-02-17T15:19:11;94410.69;;;10.48;83.19
71057;BME280;58380;48.312;9.246;2023-02-17T15:21:43;94421.94;;;10.61;83.29
71057;BME280;58380;48.312;9.246;2023-02-17T15:24:19;94415.56;;;10.56;83.15
71057;BME280;58380;48.312;9.246;2023-02-17T15:26:47;94392.00;;;10.38;83.37
71057;BME280;58380;48.312;9.246;2023-02-17T15:29:17;94406.03;;;10.55;83.05
71057;BME280;58380;48.312;9.246;2023-02-17T15:31:45;94371.84;;;10.32;82.97
71057;BME280;58380;48.312;9.246;2023-02-17T15:34:16;94402.59;;;10.55;82.94
71057;BME280;58380;48.312;9.246;2023-02-17T15:36:44;94417.16;;;10.57;83.06
71057;BME280;58380;48.312;9.246;2023-02-17T15:39:11;94362.69;;;10.23;83.45
71057;BME280;58380;48.312;9.246;2023-02-17T15:41:39;94349.56;;;10.11;83.77
71057;BME280;58380;48.312;9.246;2023-02-17T15:44:12;94406.41;;;10.47;84.21
71057;BME280;58380;48.312;9.246;2023-02-17T15:46:41;94405.53;;;10.42;84.28
71057;BME280;58380;48.312;9.246;2023-02-17T15:49:09;94398.22;;;10.32;84.46
71057;BME280;58380;48.312;9.246;2023-02-17T15:51:36;94392.25;;;10.25;84.64
71057;BME280;58380;48.312;9.246;2023-02-17T15:54:01;94366.97;;;10.12;84.48
71057;BME280;58380;48.312;9.246;2023-02-17T15:56:31;94396.28;;;10.27;84.82
71057;BME280;58380;48.312;9.246;2023-02-17T15:59:10;94394.63;;;10.09;85.10
71057;BME280;58380;48.312;9.246;2023-02-17T16:01:40;94360.75;;;9.89;85.29
71057;BME280;58380;48.312;9.246;2023-02-17T16:04:09;94372.69;;;9.92;85.61
71057;BME280;58380;48.312;9.246;2023-02-17T16:06:36;94371.88;;;9.91;85.74
71057;BME280;58380;48.312;9.246;2023-02-17T16:09:02;94383.44;;;9.90;86.04
71057;BME280;58380;48.312;9.246;2023-02-17T16:11:28;94406.69;;;10.05;86.01
71057;BME280;58380;48.312;9.246;2023-02-17T16:13:54;94357.63;;;9.64;86.27
71057;BME280;58380;48.312;9.246;2023-02-17T16:16:25;94371.25;;;9.72;86.42
71057;BME280;58380;48.312;9.246;2023-02-17T16:18:53;94382.34;;;9.86;86.33
71057;BME280;58380;48.312;9.246;2023-02-17T16:21:19;94387.25;;;9.83;86.38
71057;BME280;58380;48.312;9.246;2023-02-17T16:23:45;94383.16;;;9.75;86.62
71057;BME280;58380;48.312;9.246;2023-02-17T16:26:33;94405.03;;;9.87;86.96
71057;BME280;58380;48.312;9.246;2023-02-17T16:29:03;94405.50;;;9.84;87.24
71057;BME280;58380;48.312;9.246;2023-02-17T16:31:38;94369.56;;;9.55;87.31
71057;BME280;58380;48.312;9.246;2023-02-17T16:34:03;94405.03;;;9.76;87.12
71057;BME280;58380;48.312;9.246;2023-02-17T16:36:31;94418.00;;;9.77;87.17
71057;BME280;58380;48.312;9.246;2023-02-17T16:39:02;94402.09;;;9.60;87.58
71057;BME280;58380;48.312;9.246;2023-02-17T16:41:34;94410.56;;;9.62;87.78
71057;BME280;58380;48.312;9.246;2023-02-17T16:43:59;94400.59;;;9.64;87.63
71057;BME280;58380;48.312;9.246;2023-02-17T16:46:31;94421.81;;;9.69;87.64
71057;BME280;58380;48.312;9.246;2023-02-17T16:49:00;94421.13;;;9.62;88.05
71057;BME280;58380;48.312;9.246;2023-02-17T16:51:28;94410.03;;;9.48;88.32
71057;BME280;58380;48.312;9.246;2023-02-17T16:53:54;94420.91;;;9.52;88.50
71057;BME280;58380;48.312;9.246;2023-02-17T16:56:33;94340.53;;;9.02;88.26
71057;BME280;58380;48.312;9.246;2023-02-17T16:59:02;94416.91;;;9.49;88.68
71057;BME280;58380;48.312;9.246;2023-02-17T17:01:29;94389.56;;;9.27;88.70
71057;BME280;58380;48.312;9.246;2023-02-17T17:03:54;94382.69;;;9.14;88.97
71057;BME280;58380;48.312;9.246;2023-02-17T17:06:27;94416.91;;;9.38;89.45
71057;BME280;58380;48.312;9.246;2023-02-17T17:08:54;94404.09;;;9.18;89.54
71057;BME280;58380;48.312;9.246;2023-02-17T17:11:22;94428.16;;;9.21;89.90
71057;BME280;58380;48.312;9.246;2023-02-17T17:13:50;94426.91;;;9.24;90.19
71057;BME280;58380;48.312;9.246;2023-02-17T17:16:21;94417.84;;;9.20;90.20
71057;BME280;58380;48.312;9.246;2023-02-17T17:18:50;94427.78;;;9.18;90.03
71057;BME280;58380;48.312;9.246;2023-02-17T17:21:17;94413.94;;;9.11;90.15
71057;BME280;58380;48.312;9.246;2023-02-17T17:23:44;94422.53;;;9.18;90.03
71057;BME280;58380;48.312;9.246;2023-02-17T17:26:26;94435.81;;;9.23;90.29
71057;BME280;58380;48.312;9.246;2023-02-17T17:28:57;94419.75;;;9.01;90.71
71057;BME280;58380;48.312;9.246;2023-02-17T17:31:23;94449.78;;;9.12;90.81
71057;BME280;58380;48.312;9.246;2023-02-17T17:33:49;94449.22;;;9.10;91.41
71057;BME280;58380;48.312;9.246;2023-02-17T17:36:26;94442.34;;;9.09;91.65
71057;BME280;58380;48.312;9.246;2023-02-17T17:38:55;94449.78;;;9.12;91.79
71057;BME280;58380;48.312;9.246;2023-02-17T17:41:23;94451.63;;;9.11;91.90
71057;BME280;58380;48.312;9.246;2023-02-17T17:43:50;94436.38;;;9.01;91.78
71057;BME280;58380;48.312;9.246;2023-02-17T17:46:21;94454.94;;;9.18;91.78
71057;BME280;58380;48.312;9.246;2023-02-17T17:48:49;94445.78;;;9.09;92.04
71057;BME280;58380;48.312;9.246;2023-02-17T17:51:17;94437.31;;;9.07;91.68
71057;BME280;58380;48.312;9.246;2023-02-17T17:53:45;94431.44;;;8.93;91.82
71057;BME280;58380;48.312;9.246;2023-02-17T17:56:16;94466.50;;;9.17;92.31
71057;BME280;58380;48.312;9.246;2023-02-17T17:58:43;94432.81;;;8.96;92.50
71057;BME280;58380;48.312;9.246;2023-02-17T18:01:09;94460.44;;;9.17;92.32
71057;BME280;58380;48.312;9.246;2023-02-17T18:03:36;94403.50;;;8.80;92.50
71057;BME280;58380;48.312;9.246;2023-02-17T18:06:03;94452.19;;;9.13;92.46
71057;BME280;58380;48.312;9.246;2023-02-17T18:08:31;94427.56;;;9.07;92.59
71057;BME280;58380;48.312;9.246;2023-02-17T18:10:57;94352.34;;;8.64;92.26
71057;BME280;58380;48.312;9.246;2023-02-17T18:13:23;94417.72;;;9.03;92.47
71057;BME280;58380;48.312;9.246;2023-02-17T18:15:50;94390.56;;;8.91;92.46
71057;BME280;58380;48.312;9.246;2023-02-17T18:18:16;94417.41;;;9.11;92.60
71057;BME280;58380;48.312;9.246;2023-02-17T18:20:42;94430.91;;;9.15;92.50
71057;BME280;58380;48.312;9.246;2023-02-17T18:23:08;94434.78;;;9.24;92.55
71057;BME280;58380;48.312;9.246;2023-02-17T18:25:33;94413.13;;;9.10;92.28
71057;BME280;58380;48.312;9.246;2023-02-17T18:27:59;94450.25;;;9.44;91.87
71057;BME280;58380;48.312;9.246;2023-02-17T18:30:24;94444.78;;;9.34;90.95
71057;BME280;58380;48.312;9.246;2023-02-17T18:32:51;94477.28;;;9.39;90.99
71057;BME280;58380;48.312;9.246;2023-02-17T18:35:17;94469.38;;;9.27;91.51
71057;BME280;58380;48.312;9.246;2023-02-17T18:37:43;94453.00;;;9.14;91.43
71057;BME280;58380;48.312;9.246;2023-02-17T18:40:10;94453.44;;;9.11;91.65
71057;BME280;58380;48.312;9.246;2023-02-17T18:42:38;94463.06;;;9.05;91.70
71057;BME280;58380;48.312;9.246;2023-02-17T18:45:05;94450.91;;;8.92;92.10
71057;BME280;58380;48.312;9.246;2023-02-17T18:47:31;94396.03;;;8.54;92.35
71057;BME280;58380;48.312;9.246;2023-02-17T18:49:57;94440.84;;;8.89;92.65
71057;BME280;58380;48.312;9.246;2023-02-17T18:52:22;94422.06;;;8.74;93.08
71057;BME280;58380;48.312;9.246;2023-02-17T18:54:48;94430.44;;;8.94;93.70
71057;BME280;58380;48.312;9.246;2023-02-17T18:57:13;94458.25;;;9.25;92.97
71057;BME280;58380;48.312;9.246;2023-02-17T18:59:39;94450.34;;;9.25;92.60
71057;BME280;58380;48.312;9.246;2023-02-17T19:02:09;94456.56;;;9.31;92.70
71057;BME280;58380;48.312;9.246;2023-02-17T19:04:35;94473.63;;;9.52;92.35
71057;BME280;58380;48.312;9.246;2023-02-17T19:07:01;94461.50;;;9.51;91.74
71057;BME280;58380;48.312;9.246;2023-02-17T19:09:32;94440.97;;;9.41;90.72
71057;BME280;58380;48.312;9.246;2023-02-17T19:11:59;94488.16;;;9.78;90.23
71057;BME280;58380;48.312;9.246;2023-02-17T19:14:24;94437.31;;;9.42;90.26
71057;BME280;58380;48.312;9.246;2023-02-17T19:16:50;94503.28;;;9.83;90.12
71057;BME280;58380;48.312;9.246;2023-02-17T19:19:15;94485.19;;;9.75;89.75
71057;BME280;58380;48.312;9.246;2023-02-17T19:21:40;94492.63;;;9.89;88.90
71057;BME280;58380;48.312;9.246;2023-02-17T19:24:06;94474.97;;;9.78;88.90
71057;BME280;58380;48.312;9.246;2023-02-17T19:26:35;94454.81;;;9.60;88.82
71057;BME280;58380;48.312;9.246;2023-02-17T19:29:02;94501.91;;;9.92;89.08
71057;BME280;58380;48.312;9.246;2023-02-17T19:31:28;94503.16;;;9.89;89.05
71057;BME280;58380;48.312;9.246;2023-02-17T19:33:54;94491.25;;;9.87;89.06
71057;BME280;58380;48.312;9.246;2023-02-17T19:36:21;94467.41;;;9.70;88.90
71057;BME280;58380;48.312;9.246;2023-02-17T19:38:48;94516.25;;;9.96;89.21
71057;BME280;58380;48.312;9.246;2023-02-17T19:41:16;94478.31;;;9.74;89.29
71057;BME280;58380;48.312;9.246;2023-02-17T19:43:44;94494.09;;;9.85;89.22
71057;BME280;58380;48.312;9.246;2023-02-17T19:46:12;94513.69;;;10.01;89.34
71057;BME280;58380;48.312;9.246;2023-02-17T19:48:44;94513.69;;;10.01;89.28
71057;BME280;58380;48.312;9.246;2023-02-17T19:51:10;94508.75;;;9.93;89.38
71057;BME280;58380;48.312;9.246;2023-02-17T19:53:38;94515.41;;;9.96;89.41
71057;BME280;58380;48.312;9.246;2023-02-17T19:56:07;94500.06;;;9.92;89.63
71057;BME280;58380;48.312;9.246;2023-02-17T19:58:34;94501.22;;;9.85;89.59
71057;BME280;58380;48.312;9.246;2023-02-17T20:01:07;94510.03;;;9.90;89.85
71057;BME280;58380;48.312;9.246;2023-02-17T20:03:38;94492.88;;;9.76;89.74
71057;BME280;58380;48.312;9.246;2023-02-17T20:06:06;94518.50;;;9.92;89.98
71057;BME280;58380;48.312;9.246;2023-02-17T20:08:34;94515.56;;;9.89;90.03
71057;BME280;58380;48.312;9.246;2023-02-17T20:11:03;94488.03;;;9.73;90.35
71057;BME280;58380;48.312;9.246;2023-02-17T20:13:34;94494.34;;;9.72;90.30
71057;BME280;58380;48.312;9.246;2023-02-17T20:16:02;94510.38;;;9.82;90.53
71057;BME280;58380;48.312;9.246;2023-02-17T20:18:32;94527.47;;;9.80;90.67
71057;BME280;58380;48.312;9.246;2023-02-17T20:21:00;94517.63;;;9.75;90.78
71057;BME280;58380;48.312;9.246;2023-02-17T20:23:26;94518.66;;;9.74;90.91
71057;BME280;58380;48.312;9.246;2023-02-17T20:25:51;94524.94;;;9.73;90.88
71057;BME280;58380;48.312;9.246;2023-02-17T20:28:17;94534.69;;;9.72;90.97
71057;BME280;58380;48.312;9.246;2023-02-17T20:30:43;94516.59;;;9.64;91.30
71057;BME280;58380;48.312;9.246;2023-02-17T20:33:10;94532.53;;;9.69;91.13
71057;BME280;58380;48.312;9.246;2023-02-17T20:35:36;94512.13;;;9.53;91.56
71057;BME280;58380;48.312;9.246;2023-02-17T20:38:02;94525.75;;;9.62;91.83
71057;BME280;58380;48.312;9.246;2023-02-17T20:40:29;94512.34;;;9.52;91.84
71057;BME280;58380;48.312;9.246;2023-02-17T20:42:56;94526.91;;;9.54;91.88
71057;BME280;58380;48.312;9.246;2023-02-17T20:45:23;94532.75;;;9.56;92.15
71057;BME280;58380;48.312;9.246;2023-02-17T20:47:49;94526.69;;;9.44;92.21
71057;BME280;58380;48.312;9.246;2023-02-17T20:50:17;94513.28;;;9.34;92.47
71057;BME280;58380;48.312;9.246;2023-02-17T20:52:44;94545.94;;;9.44;92.77
71057;BME280;58380;48.312;9.246;2023-02-17T20:55:11;94538.03;;;9.44;92.82
71057;BME280;58380;48.312;9.246;2023-02-17T20:57:40;94547.41;;;9.40;93.53
71057;BME280;58380;48.312;9.246;2023-02-17T21:00:06;94555.19;;;9.35;93.92
71057;BME280;58380;48.312;9.246;2023-02-17T21:02:33;94538.44;;;9.18;94.18
71057;BME280;58380;48.312;9.246;2023-02-17T21:04:58;94547.84;;;9.14;94.81
71057;BME280;58380;48.312;9.246;2023-02-17T21:07:24;94540.59;;;9.09;94.88
71057;BME280;58380;48.312;9.246;2023-02-17T21:09:49;94553.53;;;9.11;95.50
71057;BME280;58380;48.312;9.246;2023-02-17T21:12:15;94544.66;;;8.93;96.16
71057;BME280;58380;48.312;9.246;2023-02-17T21:14:43;94566.09;;;8.97;96.75
71057;BME280;58380;48.312;9.246;2023-02-17T21:17:09;94573.63;;;8.93;97.18
71057;BME280;58380;48.312;9.246;2023-02-17T21:19:34;94550.25;;;8.85;97.47
71057;BME280;58380;48.312;9.246;2023-02-17T21:22:00;94575.19;;;8.82;97.58
71057;BME280;58380;48.312;9.246;2023-02-17T21:24:25;94566.56;;;8.75;98.33
71057;BME280;58380;48.312;9.246;2023-02-17T21:26:51;94556.38;;;8.67;98.44
71057;BME280;58380;48.312;9.246;2023-02-17T21:29:16;94577.34;;;8.74;98.99
71057;BME280;58380;48.312;9.246;2023-02-17T21:31:41;94576.53;;;8.73;99.10
71057;BME280;58380;48.312;9.246;2023-02-17T21:34:07;94551.50;;;8.52;100.00
71057;BME280;58380;48.312;9.246;2023-02-17T21:36:33;94565.00;;;8.56;100.00
71057;BME280;58380;48.312;9.246;2023-02-17T21:38:58;94576.69;;;8.60;100.00
71057;BME280;58380;48.312;9.246;2023-02-17T21:41:24;94566.31;;;8.65;100.00